createdAt,value
2016-11-07T00:00:53.279Z,7
2016-11-07T00:01:56.693Z,6
2016-11-07T00:03:00.238Z,7
2016-11-07T00:04:03.773Z,6
2016-11-07T00:05:07.305Z,7
2016-11-07T00:06:10.847Z,7
2016-11-07T00:07:14.499Z,6
2016-11-07T00:08:18.037Z,7
2016-11-07T00:09:21.580Z,6
2016-11-07T00:10:25.112Z,7
2016-11-07T00:11:28.775Z,6
2016-11-07T00:12:32.311Z,7
2016-11-07T00:13:36.031Z,6
2016-11-07T00:14:39.562Z,6
2016-11-07T00:15:43.098Z,6
2016-11-07T00:16:46.635Z,6
2016-11-07T00:17:50.181Z,7
2016-11-07T00:18:53.712Z,6
2016-11-07T00:19:57.249Z,6
2016-11-07T00:21:00.786Z,6
2016-11-07T00:22:04.335Z,6
2016-11-07T00:23:07.872Z,6
2016-11-07T00:24:11.414Z,6
2016-11-07T00:25:14.950Z,6
2016-11-07T00:26:18.487Z,6
2016-11-07T00:27:22.032Z,6
2016-11-07T00:28:25.602Z,6
2016-11-07T00:29:29.230Z,6
2016-11-07T00:30:32.763Z,6
2016-11-07T00:31:36.297Z,6
2016-11-07T00:32:39.839Z,6
2016-11-07T00:33:43.381Z,6
2016-11-07T00:34:46.915Z,6
2016-11-07T00:35:50.453Z,6
2016-11-07T00:36:53.995Z,6
2016-11-07T00:37:57.535Z,6
2016-11-07T00:39:01.093Z,6
2016-11-07T00:40:04.617Z,6
2016-11-07T00:41:08.151Z,6
2016-11-07T00:42:11.694Z,6
2016-11-07T00:43:15.463Z,6
2016-11-07T00:44:18.998Z,6
2016-11-07T00:45:22.533Z,6
2016-11-07T00:46:26.145Z,6
2016-11-07T00:47:29.686Z,6
2016-11-07T00:48:33.230Z,6
2016-11-07T00:49:36.759Z,6
2016-11-07T00:50:40.297Z,6
2016-11-07T00:51:43.833Z,6
2016-11-07T00:52:47.376Z,6
2016-11-07T00:53:50.911Z,6
2016-11-07T00:54:54.448Z,6
2016-11-07T00:55:58.076Z,6
2016-11-07T00:57:01.614Z,6
2016-11-07T00:58:05.152Z,6
2016-11-07T00:59:08.697Z,6
2016-11-07T01:00:12.234Z,6
2016-11-07T01:01:15.991Z,6
2016-11-07T01:02:19.532Z,6
2016-11-07T01:03:23.068Z,6
2016-11-07T01:04:26.694Z,6
2016-11-07T01:05:30.229Z,6
2016-11-07T01:06:33.761Z,6
2016-11-07T01:07:37.296Z,6
2016-11-07T01:08:40.840Z,6
2016-11-07T01:09:44.370Z,6
2016-11-07T01:10:47.972Z,6
2016-11-07T01:11:51.511Z,6
2016-11-07T01:12:55.041Z,6
2016-11-07T01:13:58.581Z,6
2016-11-07T01:15:02.121Z,6
2016-11-07T01:16:05.973Z,6
2016-11-07T01:17:09.205Z,6
2016-11-07T01:18:12.743Z,6
2016-11-07T01:19:16.281Z,6
2016-11-07T01:20:19.810Z,6
2016-11-07T01:21:23.350Z,6
2016-11-07T01:22:26.887Z,6
2016-11-07T01:23:30.426Z,6
2016-11-07T01:24:33.967Z,6
2016-11-07T01:25:37.503Z,6
2016-11-07T01:26:41.040Z,6
2016-11-07T01:27:44.574Z,6
2016-11-07T01:28:48.165Z,6
2016-11-07T01:29:51.710Z,6
2016-11-07T01:30:55.250Z,6
2016-11-07T01:31:58.782Z,6
2016-11-07T01:33:02.553Z,6
2016-11-07T01:34:06.098Z,6
2016-11-07T01:35:09.643Z,6
2016-11-07T01:36:13.249Z,6
2016-11-07T01:37:16.791Z,6
2016-11-07T01:38:20.330Z,6
2016-11-07T01:39:23.863Z,6
2016-11-07T01:40:27.402Z,6
2016-11-07T01:41:30.944Z,6
2016-11-07T01:42:34.486Z,6
2016-11-07T01:43:38.062Z,6
2016-11-07T01:44:41.607Z,6
2016-11-07T01:45:45.151Z,6
2016-11-07T01:46:49.070Z,6
2016-11-07T01:47:52.465Z,6
2016-11-07T01:48:56.011Z,6
2016-11-07T01:49:59.552Z,6
2016-11-07T01:51:03.086Z,6
2016-11-07T01:52:06.616Z,6
2016-11-07T01:53:10.159Z,6
2016-11-07T01:54:13.748Z,6
2016-11-07T01:55:17.283Z,6
2016-11-07T01:56:20.823Z,6
2016-11-07T01:57:24.356Z,6
2016-11-07T01:58:27.893Z,6
2016-11-07T01:59:31.427Z,6
2016-11-07T02:00:34.967Z,6
2016-11-07T02:01:38.501Z,6
2016-11-07T02:02:42.042Z,6
2016-11-07T02:03:45.579Z,6
2016-11-07T02:04:49.304Z,6
2016-11-07T02:05:52.847Z,6
2016-11-07T02:06:56.380Z,6
2016-11-07T02:07:59.947Z,6
2016-11-07T02:09:03.477Z,6
2016-11-07T02:10:07.017Z,6
2016-11-07T02:11:10.554Z,6
2016-11-07T02:12:14.092Z,6
2016-11-07T02:13:17.636Z,6
2016-11-07T02:14:21.174Z,6
2016-11-07T02:15:25.028Z,6
2016-11-07T02:16:28.249Z,6
2016-11-07T02:17:31.788Z,6
2016-11-07T02:18:35.330Z,6
2016-11-07T02:19:39.254Z,6
2016-11-07T02:20:42.887Z,6
2016-11-07T02:21:46.430Z,6
2016-11-07T02:22:49.967Z,6
2016-11-07T02:23:53.503Z,6
2016-11-07T02:24:57.042Z,6
2016-11-07T02:26:00.583Z,6
2016-11-07T02:27:04.117Z,6
2016-11-07T02:28:07.650Z,6
2016-11-07T02:29:11.190Z,6
2016-11-07T02:30:14.728Z,6
2016-11-07T02:31:18.258Z,6
2016-11-07T02:32:21.797Z,6
2016-11-07T02:33:25.338Z,6
2016-11-07T02:34:28.878Z,6
2016-11-07T02:35:32.410Z,6
2016-11-07T02:36:35.958Z,6
2016-11-07T02:37:39.496Z,6
2016-11-07T02:38:43.032Z,6
2016-11-07T02:39:46.564Z,6
2016-11-07T02:40:50.096Z,6
2016-11-07T02:41:53.628Z,6
2016-11-07T02:42:57.173Z,6
2016-11-07T02:44:00.704Z,6
2016-11-07T02:45:04.238Z,6
2016-11-07T02:46:07.784Z,6
2016-11-07T02:47:11.325Z,6
2016-11-07T02:48:14.864Z,6
2016-11-07T02:49:18.405Z,6
2016-11-07T02:50:21.950Z,6
2016-11-07T02:51:25.489Z,6
2016-11-07T02:52:29.021Z,6
2016-11-07T02:53:32.564Z,6
2016-11-07T02:54:36.107Z,6
2016-11-07T02:55:39.644Z,6
2016-11-07T02:56:43.177Z,6
2016-11-07T02:57:46.727Z,6
2016-11-07T02:58:50.253Z,6
2016-11-07T02:59:53.784Z,6
2016-11-07T03:00:57.321Z,6
2016-11-07T03:02:00.865Z,6
2016-11-07T03:03:04.407Z,6
2016-11-07T03:04:07.949Z,6
2016-11-07T03:05:11.488Z,6
2016-11-07T03:06:15.024Z,6
2016-11-07T03:07:18.568Z,6
2016-11-07T03:08:22.101Z,6
2016-11-07T03:09:25.636Z,6
2016-11-07T03:10:29.173Z,6
2016-11-07T03:11:32.703Z,6
2016-11-07T03:12:36.238Z,6
2016-11-07T03:13:39.789Z,6
2016-11-07T03:14:43.321Z,6
2016-11-07T03:15:46.858Z,6
2016-11-07T03:16:50.386Z,6
2016-11-07T03:17:53.930Z,6
2016-11-07T03:18:57.463Z,6
2016-11-07T03:20:01.002Z,6
2016-11-07T03:21:04.547Z,6
2016-11-07T03:22:08.086Z,6
2016-11-07T03:23:11.624Z,6
2016-11-07T03:24:15.157Z,6
2016-11-07T03:25:18.689Z,6
2016-11-07T03:26:22.230Z,6
2016-11-07T03:27:25.766Z,6
2016-11-07T03:28:29.307Z,6
2016-11-07T03:29:32.848Z,6
2016-11-07T03:30:36.378Z,6
2016-11-07T03:31:39.918Z,6
2016-11-07T03:32:43.451Z,6
2016-11-07T03:33:46.991Z,6
2016-11-07T03:34:50.522Z,6
2016-11-07T03:35:54.060Z,6
2016-11-07T03:36:57.596Z,6
2016-11-07T03:38:01.139Z,6
2016-11-07T03:39:04.682Z,6
2016-11-07T03:40:08.216Z,6
2016-11-07T03:41:11.750Z,6
2016-11-07T03:42:15.288Z,6
2016-11-07T03:43:18.822Z,6
2016-11-07T03:44:22.354Z,6
2016-11-07T03:45:25.892Z,6
2016-11-07T03:46:29.427Z,6
2016-11-07T03:47:32.969Z,6
2016-11-07T03:48:36.501Z,6
2016-11-07T03:49:40.038Z,6
2016-11-07T03:50:43.578Z,6
2016-11-07T03:51:47.113Z,6
2016-11-07T03:52:50.650Z,6
2016-11-07T03:53:54.193Z,6
2016-11-07T03:54:57.726Z,6
2016-11-07T03:56:01.486Z,6
2016-11-07T03:57:05.019Z,6
2016-11-07T03:58:08.558Z,6
2016-11-07T03:59:12.090Z,6
2016-11-07T04:00:15.631Z,6
2016-11-07T04:01:19.169Z,6
2016-11-07T04:02:22.705Z,6
2016-11-07T04:03:26.240Z,6
2016-11-07T04:04:29.774Z,6
2016-11-07T04:05:33.310Z,6
2016-11-07T04:06:36.844Z,6
2016-11-07T04:07:40.376Z,6
2016-11-07T04:08:43.913Z,6
2016-11-07T04:09:47.438Z,6
2016-11-07T04:10:50.984Z,6
2016-11-07T04:11:54.519Z,6
2016-11-07T04:12:58.052Z,6
2016-11-07T04:14:01.584Z,6
2016-11-07T04:15:05.127Z,6
2016-11-07T04:16:08.658Z,6
2016-11-07T04:17:12.195Z,6
2016-11-07T04:18:15.740Z,6
2016-11-07T04:19:19.279Z,6
2016-11-07T04:20:22.810Z,6
2016-11-07T04:21:26.347Z,6
2016-11-07T04:22:29.984Z,6
2016-11-07T04:23:33.517Z,6
2016-11-07T04:24:37.062Z,6
2016-11-07T04:25:40.590Z,6
2016-11-07T04:26:44.130Z,6
2016-11-07T04:27:47.661Z,6
2016-11-07T04:28:51.201Z,6
2016-11-07T04:29:54.743Z,6
2016-11-07T04:30:58.289Z,6
2016-11-07T04:32:01.818Z,6
2016-11-07T04:33:05.346Z,6
2016-11-07T04:34:08.888Z,6
2016-11-07T04:35:12.428Z,6
2016-11-07T04:36:15.967Z,6
2016-11-07T04:37:19.500Z,6
2016-11-07T04:38:23.038Z,6
2016-11-07T04:39:26.577Z,6
2016-11-07T04:40:30.109Z,6
2016-11-07T04:41:33.645Z,6
2016-11-07T04:42:37.188Z,6
2016-11-07T04:43:40.725Z,6
2016-11-07T04:44:44.260Z,6
2016-11-07T04:45:47.805Z,6
2016-11-07T04:46:51.339Z,6
2016-11-07T04:47:54.877Z,6
2016-11-07T04:48:58.420Z,6
2016-11-07T04:50:01.964Z,6
2016-11-07T04:51:05.495Z,6
2016-11-07T04:52:08.894Z,6
2016-11-07T04:53:12.433Z,6
2016-11-07T04:54:16.072Z,6
2016-11-07T04:55:19.614Z,6
2016-11-07T04:56:23.148Z,6
2016-11-07T04:57:26.684Z,6
2016-11-07T04:58:30.218Z,6
2016-11-07T04:59:33.757Z,6
2016-11-07T05:00:37.289Z,6
2016-11-07T05:01:40.823Z,6
2016-11-07T05:02:44.364Z,6
2016-11-07T05:03:47.908Z,6
2016-11-07T05:04:51.446Z,6
2016-11-07T05:05:54.980Z,6
2016-11-07T05:06:58.519Z,6
2016-11-07T05:08:02.057Z,6
2016-11-07T05:09:05.599Z,6
2016-11-07T05:10:09.132Z,6
2016-11-07T05:11:12.665Z,6
2016-11-07T05:12:16.197Z,6
2016-11-07T05:13:19.739Z,6
2016-11-07T05:14:23.279Z,6
2016-11-07T05:15:26.816Z,6
2016-11-07T05:16:30.355Z,6
2016-11-07T05:17:33.895Z,6
2016-11-07T05:18:37.432Z,6
2016-11-07T05:19:40.967Z,6
2016-11-07T05:20:44.501Z,6
2016-11-07T05:21:48.033Z,6
2016-11-07T05:22:51.573Z,6
2016-11-07T05:23:55.108Z,6
2016-11-07T05:24:58.644Z,6
2016-11-07T05:26:02.187Z,6
2016-11-07T05:27:05.730Z,6
2016-11-07T05:28:09.271Z,6
2016-11-07T05:29:12.803Z,6
2016-11-07T05:30:16.346Z,6
2016-11-07T05:31:19.883Z,6
2016-11-07T05:32:23.412Z,6
2016-11-07T05:33:26.945Z,6
2016-11-07T05:34:30.487Z,6
2016-11-07T05:35:34.017Z,6
2016-11-07T05:36:37.561Z,6
2016-11-07T05:37:41.094Z,6
2016-11-07T05:38:44.631Z,6
2016-11-07T05:39:48.167Z,6
2016-11-07T05:40:51.702Z,6
2016-11-07T05:41:55.237Z,6
2016-11-07T05:42:58.776Z,6
2016-11-07T05:44:02.323Z,6
2016-11-07T05:45:05.857Z,6
2016-11-07T05:46:09.391Z,6
2016-11-07T05:47:12.949Z,6
2016-11-07T05:48:16.471Z,6
2016-11-07T05:49:20.005Z,6
2016-11-07T05:50:23.539Z,6
2016-11-07T05:51:27.088Z,6
2016-11-07T05:52:30.619Z,6
2016-11-07T05:53:34.158Z,6
2016-11-07T05:54:37.692Z,6
2016-11-07T05:55:41.233Z,6
2016-11-07T05:56:44.763Z,6
2016-11-07T05:57:48.301Z,6
2016-11-07T05:58:51.841Z,6
2016-11-07T05:59:55.385Z,6
2016-11-07T06:00:58.913Z,6
2016-11-07T06:02:02.445Z,6
2016-11-07T06:03:05.985Z,6
2016-11-07T06:04:09.521Z,6
2016-11-07T06:05:13.056Z,6
2016-11-07T06:06:16.595Z,6
2016-11-07T06:07:20.132Z,6
2016-11-07T06:08:23.668Z,6
2016-11-07T06:09:27.203Z,6
2016-11-07T06:10:30.749Z,6
2016-11-07T06:11:34.285Z,6
2016-11-07T06:12:37.820Z,6
2016-11-07T06:13:41.356Z,6
2016-11-07T06:14:44.900Z,6
2016-11-07T06:15:48.426Z,6
2016-11-07T06:16:51.966Z,6
2016-11-07T06:17:55.493Z,6
2016-11-07T06:18:59.038Z,6
2016-11-07T06:20:02.571Z,6
2016-11-07T06:21:06.113Z,6
2016-11-07T06:22:09.650Z,6
2016-11-07T06:23:13.185Z,6
2016-11-07T06:24:16.723Z,6
2016-11-07T06:25:20.253Z,6
2016-11-07T06:26:23.794Z,6
2016-11-07T06:27:27.331Z,6
2016-11-07T06:28:30.875Z,6
2016-11-07T06:29:34.407Z,6
2016-11-07T06:30:37.944Z,6
2016-11-07T06:31:41.482Z,6
2016-11-07T06:32:45.018Z,6
2016-11-07T06:33:48.555Z,6
2016-11-07T06:34:52.093Z,6
2016-11-07T06:35:55.645Z,6
2016-11-07T06:36:59.172Z,6
2016-11-07T06:38:02.711Z,6
2016-11-07T06:39:06.245Z,6
2016-11-07T06:40:09.782Z,6
2016-11-07T06:41:13.311Z,6
2016-11-07T06:42:16.848Z,6
2016-11-07T06:43:20.390Z,6
2016-11-07T06:44:23.923Z,6
2016-11-07T06:45:27.455Z,6
2016-11-07T06:46:30.993Z,6
2016-11-07T06:47:34.531Z,6
2016-11-07T06:48:38.070Z,6
2016-11-07T06:49:41.606Z,6
2016-11-07T06:50:45.145Z,6
2016-11-07T06:51:48.677Z,6
2016-11-07T06:52:52.218Z,6
2016-11-07T06:53:55.757Z,6
2016-11-07T06:54:59.293Z,6
2016-11-07T06:56:02.923Z,6
2016-11-07T06:57:06.460Z,6
2016-11-07T06:58:10.001Z,6
2016-11-07T06:59:13.535Z,6
2016-11-07T07:00:17.075Z,6
2016-11-07T07:01:20.611Z,6
2016-11-07T07:02:24.146Z,6
2016-11-07T07:03:27.676Z,6
2016-11-07T07:04:31.218Z,6
2016-11-07T07:05:34.754Z,6
2016-11-07T07:06:38.284Z,6
2016-11-07T07:07:41.821Z,6
2016-11-07T07:08:45.367Z,6
2016-11-07T07:09:48.901Z,6
2016-11-07T07:10:52.435Z,5
2016-11-07T07:11:55.968Z,6
2016-11-07T07:12:59.510Z,6
2016-11-07T07:14:03.046Z,6
2016-11-07T07:15:06.585Z,5
2016-11-07T07:16:10.119Z,5
2016-11-07T07:17:13.656Z,5
2016-11-07T07:18:17.198Z,5
2016-11-07T07:19:20.729Z,5
2016-11-07T07:20:24.268Z,5
2016-11-07T07:21:27.801Z,5
2016-11-07T07:22:31.334Z,5
2016-11-07T07:23:34.868Z,5
2016-11-07T07:24:38.408Z,5
2016-11-07T07:25:41.951Z,5
2016-11-07T07:26:45.486Z,5
2016-11-07T07:27:49.020Z,5
2016-11-07T07:28:52.560Z,5
2016-11-07T07:29:56.095Z,5
2016-11-07T07:30:59.631Z,5
2016-11-07T07:32:03.169Z,5
2016-11-07T07:33:06.712Z,5
2016-11-07T07:34:10.249Z,5
2016-11-07T07:35:13.780Z,5
2016-11-07T07:36:17.312Z,5
2016-11-07T07:37:20.852Z,5
2016-11-07T07:38:24.391Z,5
2016-11-07T07:39:27.935Z,5
2016-11-07T07:40:31.466Z,5
2016-11-07T07:41:34.997Z,5
2016-11-07T07:42:38.532Z,5
2016-11-07T07:43:42.077Z,5
2016-11-07T07:44:45.616Z,5
2016-11-07T07:45:49.149Z,5
2016-11-07T07:46:52.686Z,5
2016-11-07T07:47:56.219Z,5
2016-11-07T07:48:59.760Z,5
2016-11-07T07:50:03.294Z,5
2016-11-07T07:51:06.828Z,5
2016-11-07T07:52:10.373Z,5
2016-11-07T07:53:13.914Z,5
2016-11-07T07:54:17.449Z,5
2016-11-07T07:55:20.984Z,5
2016-11-07T07:56:24.513Z,5
2016-11-07T07:57:28.057Z,5
2016-11-07T07:58:31.598Z,5
2016-11-07T07:59:35.138Z,5
2016-11-07T08:00:38.671Z,5
2016-11-07T08:01:42.214Z,5
2016-11-07T08:02:45.746Z,5
2016-11-07T08:03:49.286Z,5
2016-11-07T08:04:52.816Z,5
2016-11-07T08:05:56.360Z,6
2016-11-07T08:06:59.895Z,5
2016-11-07T08:08:03.427Z,6
2016-11-07T08:09:06.978Z,6
2016-11-07T08:10:10.515Z,5
2016-11-07T08:11:14.048Z,6
2016-11-07T08:12:17.586Z,6
2016-11-07T08:13:21.132Z,6
2016-11-07T08:14:24.665Z,6
2016-11-07T08:15:28.199Z,6
2016-11-07T08:16:31.858Z,6
2016-11-07T08:17:35.403Z,6
2016-11-07T08:18:38.935Z,6
2016-11-07T08:19:42.463Z,6
2016-11-07T08:20:46.009Z,6
2016-11-07T08:21:49.540Z,6
2016-11-07T08:22:53.079Z,6
2016-11-07T08:23:56.611Z,6
2016-11-07T08:25:00.152Z,6
2016-11-07T08:26:03.686Z,6
2016-11-07T08:27:07.220Z,6
2016-11-07T08:28:10.751Z,6
2016-11-07T08:29:14.295Z,6
2016-11-07T08:30:17.836Z,6
2016-11-07T08:31:21.379Z,6
2016-11-07T08:32:24.920Z,6
2016-11-07T08:33:28.466Z,6
2016-11-07T08:34:32.002Z,6
2016-11-07T08:35:35.537Z,6
2016-11-07T08:36:39.082Z,6
2016-11-07T08:37:42.613Z,6
2016-11-07T08:38:46.148Z,6
2016-11-07T08:39:49.680Z,6
2016-11-07T08:40:53.224Z,6
2016-11-07T08:41:56.758Z,6
2016-11-07T08:43:00.299Z,6
2016-11-07T08:44:03.838Z,6
2016-11-07T08:45:07.377Z,6
2016-11-07T08:46:10.911Z,6
2016-11-07T08:47:14.453Z,6
2016-11-07T08:48:17.991Z,6
2016-11-07T08:49:21.535Z,6
2016-11-07T08:50:25.443Z,6
2016-11-07T08:51:28.620Z,6
2016-11-07T08:52:32.160Z,6
2016-11-07T08:53:35.700Z,6
2016-11-07T08:54:39.238Z,6
2016-11-07T08:55:42.780Z,6
2016-11-07T08:56:46.309Z,6
2016-11-07T08:57:49.847Z,6
2016-11-07T08:58:53.385Z,6
2016-11-07T08:59:56.921Z,6
2016-11-07T09:01:00.461Z,6
2016-11-07T09:02:04.002Z,6
2016-11-07T09:03:07.538Z,6
2016-11-07T09:04:11.080Z,6
2016-11-07T09:05:14.619Z,6
2016-11-07T09:06:18.156Z,6
2016-11-07T09:07:21.695Z,6
2016-11-07T09:08:25.236Z,6
2016-11-07T09:09:28.786Z,6
2016-11-07T09:10:32.314Z,6
2016-11-07T09:11:35.849Z,6
2016-11-07T09:12:39.391Z,6
2016-11-07T09:13:42.925Z,6
2016-11-07T09:14:46.465Z,6
2016-11-07T09:15:50.002Z,6
2016-11-07T09:16:53.542Z,6
2016-11-07T09:17:57.091Z,6
2016-11-07T09:19:00.628Z,6
2016-11-07T09:20:04.165Z,6
2016-11-07T09:21:07.703Z,6
2016-11-07T09:22:11.239Z,6
2016-11-07T09:23:14.770Z,6
2016-11-07T09:24:18.310Z,6
2016-11-07T09:25:21.850Z,6
2016-11-07T09:26:25.400Z,6
2016-11-07T09:27:28.932Z,6
2016-11-07T09:28:32.471Z,6
2016-11-07T09:29:36.012Z,6
2016-11-07T09:30:39.554Z,6
2016-11-07T09:31:43.090Z,6
2016-11-07T09:32:46.627Z,6
2016-11-07T09:33:50.170Z,6
2016-11-07T09:34:53.719Z,6
2016-11-07T09:35:57.250Z,7
2016-11-07T09:37:00.790Z,7
2016-11-07T09:38:04.334Z,7
2016-11-07T09:39:07.870Z,7
2016-11-07T09:40:11.411Z,7
2016-11-07T09:41:14.946Z,7
2016-11-07T09:42:18.501Z,7
2016-11-07T09:43:22.031Z,7
2016-11-07T09:44:25.578Z,7
2016-11-07T09:45:29.123Z,7
2016-11-07T09:46:32.683Z,7
2016-11-07T09:47:36.213Z,7
2016-11-07T09:48:39.751Z,7
2016-11-07T09:49:43.374Z,7
2016-11-07T09:50:46.912Z,7
2016-11-07T09:51:50.457Z,7
2016-11-07T09:52:53.991Z,7
2016-11-07T09:53:57.545Z,7
2016-11-07T09:55:01.091Z,7
2016-11-07T09:56:04.629Z,7
2016-11-07T09:57:08.177Z,8
2016-11-07T09:58:11.732Z,8
2016-11-07T09:59:15.266Z,8
2016-11-07T10:00:18.805Z,8
2016-11-07T10:01:22.355Z,8
2016-11-07T10:02:25.897Z,8
2016-11-07T10:03:29.434Z,8
2016-11-07T10:04:32.971Z,8
2016-11-07T10:05:36.525Z,8
2016-11-07T10:06:40.286Z,8
2016-11-07T10:07:43.824Z,8
2016-11-07T10:08:47.367Z,8
2016-11-07T10:09:50.922Z,8
2016-11-07T10:10:54.460Z,8
2016-11-07T10:11:57.999Z,8
2016-11-07T10:13:01.536Z,8
2016-11-07T10:14:05.082Z,8
2016-11-07T10:15:08.627Z,8
2016-11-07T10:16:12.165Z,8
2016-11-07T10:17:15.707Z,8
2016-11-07T10:18:19.251Z,8
2016-11-07T10:19:22.789Z,8
2016-11-07T10:20:26.327Z,8
2016-11-07T10:21:29.865Z,8
2016-11-07T10:22:33.407Z,8
2016-11-07T10:23:36.947Z,8
2016-11-07T10:24:40.489Z,8
2016-11-07T10:25:44.029Z,8
2016-11-07T10:26:47.585Z,8
2016-11-07T10:27:51.477Z,8
2016-11-07T10:28:55.022Z,8
2016-11-07T10:29:58.564Z,8
2016-11-07T10:31:02.101Z,8
2016-11-07T10:32:05.678Z,8
2016-11-07T10:33:09.221Z,8
2016-11-07T10:34:12.763Z,8
2016-11-07T10:35:16.297Z,8
2016-11-07T10:36:19.844Z,8
2016-11-07T10:37:23.380Z,8
2016-11-07T10:38:26.921Z,8
2016-11-07T10:39:30.466Z,8
2016-11-07T10:40:33.999Z,8
2016-11-07T10:41:37.545Z,8
2016-11-07T10:42:41.095Z,8
2016-11-07T10:43:44.633Z,8
2016-11-07T10:44:48.169Z,8
2016-11-07T10:45:51.714Z,8
2016-11-07T10:46:55.251Z,8
2016-11-07T10:47:58.797Z,8
2016-11-07T10:49:02.337Z,8
2016-11-07T10:50:06.093Z,8
2016-11-07T10:51:09.641Z,8
2016-11-07T10:52:13.174Z,8
2016-11-07T10:53:16.717Z,8
2016-11-07T10:54:20.251Z,8
2016-11-07T10:55:23.797Z,8
2016-11-07T10:56:27.333Z,8
2016-11-07T10:57:30.872Z,8
2016-11-07T10:58:34.423Z,8
2016-11-07T10:59:37.964Z,8
2016-11-07T11:00:41.504Z,8
2016-11-07T11:01:45.042Z,8
2016-11-07T11:02:48.590Z,8
2016-11-07T11:03:52.125Z,8
2016-11-07T11:04:55.661Z,8
2016-11-07T11:05:59.200Z,8
2016-11-07T11:07:02.747Z,8
2016-11-07T11:08:06.283Z,8
2016-11-07T11:09:09.828Z,8
2016-11-07T11:10:13.364Z,8
2016-11-07T11:11:16.914Z,8
2016-11-07T11:12:20.448Z,8
2016-11-07T11:13:23.994Z,8
2016-11-07T11:14:27.533Z,8
2016-11-07T11:15:31.072Z,8
2016-11-07T11:16:34.612Z,8
2016-11-07T11:17:38.156Z,8
2016-11-07T11:18:41.697Z,8
2016-11-07T11:19:45.238Z,8
2016-11-07T11:20:48.767Z,8
2016-11-07T11:21:52.309Z,8
2016-11-07T11:22:55.854Z,8
2016-11-07T11:23:59.398Z,8
2016-11-07T11:25:02.932Z,8
2016-11-07T11:26:06.486Z,8
2016-11-07T11:27:10.238Z,8
2016-11-07T11:28:13.777Z,8
2016-11-07T11:29:17.315Z,8
2016-11-07T11:30:20.863Z,8
2016-11-07T11:31:24.398Z,8
2016-11-07T11:32:27.940Z,7
2016-11-07T11:33:31.477Z,8
2016-11-07T11:34:35.021Z,7
2016-11-07T11:35:38.560Z,8
2016-11-07T11:36:42.100Z,7
2016-11-07T11:37:45.639Z,7
2016-11-07T11:38:49.175Z,8
2016-11-07T11:39:52.709Z,7
2016-11-07T11:40:56.265Z,8
2016-11-07T11:42:00.018Z,7
2016-11-07T11:43:03.559Z,7
2016-11-07T11:44:07.099Z,7
2016-11-07T11:45:10.634Z,7
2016-11-07T11:46:14.176Z,7
2016-11-07T11:47:17.724Z,7
2016-11-07T11:48:21.253Z,7
2016-11-07T11:49:24.792Z,7
2016-11-07T11:50:28.338Z,7
2016-11-07T11:51:31.881Z,7
2016-11-07T11:52:35.421Z,7
2016-11-07T11:53:38.962Z,7
2016-11-07T11:54:42.496Z,7
2016-11-07T11:55:46.031Z,7
2016-11-07T11:56:49.572Z,7
2016-11-07T11:57:53.115Z,7
2016-11-07T11:58:56.654Z,7
2016-11-07T12:00:00.198Z,7
2016-11-07T12:01:03.742Z,7
2016-11-07T12:02:07.279Z,7
2016-11-07T12:03:10.821Z,7
2016-11-07T12:04:14.357Z,7
2016-11-07T12:05:17.893Z,7
2016-11-07T12:06:21.439Z,7
2016-11-07T12:07:24.985Z,7
2016-11-07T12:08:28.525Z,7
2016-11-07T12:09:32.061Z,7
2016-11-07T12:10:35.605Z,7
2016-11-07T12:11:39.148Z,7
2016-11-07T12:12:42.690Z,7
2016-11-07T12:13:46.229Z,7
2016-11-07T12:14:49.787Z,7
2016-11-07T12:15:53.331Z,7
2016-11-07T12:16:56.868Z,7
2016-11-07T12:18:00.411Z,7
2016-11-07T12:19:03.949Z,7
2016-11-07T12:20:07.483Z,7
2016-11-07T12:21:12.889Z,7
2016-11-07T12:22:20.853Z,7
2016-11-07T12:23:30.040Z,7
2016-11-07T12:24:33.574Z,7
2016-11-07T12:25:37.122Z,7
2016-11-07T12:26:40.662Z,7
2016-11-07T12:27:44.211Z,7
2016-11-07T12:28:47.742Z,7
2016-11-07T12:29:51.278Z,7
2016-11-07T12:30:54.817Z,7
2016-11-07T12:31:58.364Z,7
2016-11-07T12:33:01.899Z,7
2016-11-07T12:34:05.446Z,7
2016-11-07T12:35:08.991Z,7
2016-11-07T12:36:12.539Z,7
2016-11-07T12:37:16.073Z,7
2016-11-07T12:38:19.619Z,7
2016-11-07T12:39:23.158Z,7
2016-11-07T12:40:26.706Z,7
2016-11-07T12:41:30.240Z,7
2016-11-07T12:42:33.819Z,7
2016-11-07T12:43:37.357Z,7
2016-11-07T12:44:40.897Z,7
2016-11-07T12:45:44.453Z,7
2016-11-07T12:46:47.994Z,7
2016-11-07T12:47:51.532Z,7
2016-11-07T12:48:55.066Z,7
2016-11-07T12:51:18.650Z,0
2016-11-07T12:52:22.196Z,0
2016-11-07T12:53:25.745Z,0
2016-11-07T12:54:29.284Z,0
2016-11-07T12:55:32.822Z,0
2016-11-07T12:56:36.373Z,0
2016-11-07T12:57:39.912Z,0
2016-11-07T12:58:43.452Z,0
2016-11-07T12:59:46.988Z,0
2016-11-07T13:00:50.533Z,0
2016-11-07T13:01:54.077Z,0
2016-11-07T13:02:57.623Z,0
2016-11-07T13:04:01.161Z,0
2016-11-07T13:05:04.713Z,0
2016-11-07T13:06:08.257Z,0
2016-11-07T13:07:11.802Z,0
2016-11-07T13:08:17.845Z,0
2016-11-07T13:09:21.338Z,0
2016-11-07T13:10:24.861Z,0
2016-11-07T13:11:28.404Z,0
2016-11-07T13:12:31.948Z,0
2016-11-07T13:13:35.495Z,0
2016-11-07T13:16:27.249Z,7
2016-11-07T13:17:30.373Z,6.9
2016-11-07T13:18:33.505Z,6.7
2016-11-07T13:19:36.624Z,6.6
2016-11-07T13:20:39.748Z,6.5
2016-11-07T13:21:42.876Z,6.5
2016-11-07T13:22:46.005Z,6.4
2016-11-07T13:23:49.124Z,6.4
2016-11-07T13:24:52.246Z,6.4
2016-11-07T13:25:55.378Z,6.4
2016-11-07T13:26:58.509Z,6.5
2016-11-07T13:28:01.639Z,6.5
2016-11-07T13:29:04.770Z,6.5
2016-11-07T13:30:07.896Z,6.5
2016-11-07T13:31:11.057Z,6.6
2016-11-07T13:32:14.202Z,6.5
2016-11-07T13:33:17.330Z,6.4
2016-11-07T13:34:20.446Z,6.4
2016-11-07T13:35:23.566Z,6.3
2016-11-07T13:36:26.700Z,6.3
2016-11-07T13:37:29.822Z,6.3
2016-11-07T13:38:32.950Z,6.3
2016-11-07T13:39:36.085Z,6.2
2016-11-07T13:40:39.203Z,6.2
2016-11-07T13:41:42.326Z,6.2
2016-11-07T13:42:45.453Z,6.2
2016-11-07T13:43:48.580Z,6.2
2016-11-07T13:44:51.848Z,6.2
2016-11-07T13:45:54.851Z,6.2
2016-11-07T13:46:57.975Z,6.1
2016-11-07T13:48:01.101Z,6
2016-11-07T13:49:04.221Z,6.1
2016-11-07T13:50:07.351Z,6.1
2016-11-07T13:51:10.472Z,6.2
2016-11-07T13:52:13.600Z,6.1
2016-11-07T13:53:16.720Z,6.1
2016-11-07T13:54:19.845Z,6.1
2016-11-07T13:55:22.974Z,6.1
2016-11-07T13:56:26.096Z,6.2
2016-11-07T13:57:29.227Z,6.2
2016-11-07T13:58:32.353Z,6.2
2016-11-07T13:59:35.480Z,6.2
2016-11-07T14:00:38.600Z,6.2
2016-11-07T14:01:41.730Z,6.2
2016-11-07T14:02:44.859Z,6.1
2016-11-07T14:03:47.990Z,6.2
2016-11-07T14:04:51.125Z,6.2
2016-11-07T14:05:54.248Z,6.2
2016-11-07T14:06:57.369Z,6.2
2016-11-07T14:08:00.508Z,6.1
2016-11-07T14:09:03.619Z,6
2016-11-07T14:10:06.739Z,6.1
2016-11-07T14:11:09.899Z,6.1
2016-11-07T14:12:13.032Z,6.1
2016-11-07T14:13:16.155Z,6
2016-11-07T14:14:19.278Z,6
2016-11-07T14:15:22.408Z,6
2016-11-07T14:16:25.538Z,5.9
2016-11-07T14:17:28.668Z,6
2016-11-07T14:18:31.798Z,6
2016-11-07T14:19:34.921Z,5.9
2016-11-07T14:20:38.049Z,5.9
2016-11-07T14:21:41.171Z,6
2016-11-07T14:22:44.298Z,6.1
2016-11-07T14:23:47.428Z,6.1
2016-11-07T14:24:50.552Z,6
2016-11-07T14:25:53.672Z,6
2016-11-07T14:26:56.796Z,5.9
2016-11-07T14:27:59.920Z,5.9
2016-11-07T14:29:03.048Z,5.9
2016-11-07T14:30:06.171Z,5.9
2016-11-07T14:31:09.296Z,5.9
2016-11-07T14:32:12.428Z,5.9
2016-11-07T14:33:15.556Z,5.8
2016-11-07T14:34:18.678Z,5.9
2016-11-07T14:35:21.809Z,5.8
2016-11-07T14:36:24.931Z,5.9
2016-11-07T14:37:28.060Z,5.8
2016-11-07T14:38:31.192Z,5.8
2016-11-07T14:39:34.323Z,5.9
2016-11-07T14:40:37.446Z,5.9
2016-11-07T14:41:40.572Z,5.8
2016-11-07T14:42:43.704Z,5.8
2016-11-07T14:43:46.825Z,5.8
2016-11-07T14:44:49.946Z,5.8
2016-11-07T14:45:53.067Z,5.8
2016-11-07T14:46:56.196Z,5.7
2016-11-07T14:47:59.318Z,5.7
2016-11-07T14:49:02.435Z,5.7
2016-11-07T14:50:05.562Z,5.6
2016-11-07T14:51:08.687Z,5.6
2016-11-07T14:52:11.814Z,5.7
2016-11-07T14:53:14.944Z,5.7
2016-11-07T14:54:18.074Z,5.6
2016-11-07T14:55:21.206Z,5.6
2016-11-07T14:56:24.329Z,5.5
2016-11-07T14:57:27.456Z,5.5
2016-11-07T14:58:30.583Z,5.5
2016-11-07T14:59:33.713Z,5.6
2016-11-07T15:00:36.837Z,5.6
2016-11-07T15:01:39.960Z,5.5
2016-11-07T15:02:43.082Z,5.5
2016-11-07T15:03:46.211Z,5.5
2016-11-07T15:04:49.339Z,5.5
2016-11-07T15:05:52.467Z,5.5
2016-11-07T15:06:55.598Z,5.5
2016-11-07T15:07:58.717Z,5.5
2016-11-07T15:09:01.833Z,5.4
2016-11-07T15:10:04.970Z,5.5
2016-11-07T15:11:08.099Z,5.5
2016-11-07T15:12:11.229Z,5.5
2016-11-07T15:13:14.347Z,5.4
2016-11-07T15:14:17.481Z,5.4
2016-11-07T15:15:20.601Z,5.3
2016-11-07T15:16:23.729Z,5.3
2016-11-07T15:17:26.844Z,5.3
2016-11-07T15:18:29.983Z,5.3
2016-11-07T15:19:33.104Z,5.3
2016-11-07T15:20:36.226Z,5.3
2016-11-07T15:21:39.363Z,5.3
2016-11-07T15:22:42.487Z,5.2
2016-11-07T15:23:45.612Z,5.2
2016-11-07T15:24:48.735Z,5.2
2016-11-07T15:25:51.868Z,5.2
2016-11-07T15:26:54.995Z,5.2
2016-11-07T15:27:58.135Z,5.2
2016-11-07T15:29:01.249Z,5.2
2016-11-07T15:30:04.389Z,5.3
2016-11-07T15:31:07.508Z,5.2
2016-11-07T15:32:10.638Z,5.2
2016-11-07T15:33:13.755Z,5.1